Tiempo atmosférico en la estación meteorológica de Piornal, Cáceres (1175 m.)



Fecha
DESCASC
Temp. máxima en grados centígrados (hora)
DESCASC
Temp. mínima en grados centígrados (hora)
DESCASC
Temp. media en grados centígrados
DESCASC
Racha de viento máxima en m/sg (hora)
DESCASC
Velocidad máxima media en intervalos de 10 minutos(hora)
DESCASC
Precipitaciones diarias en mm
DESCASC
Precipitaciones de 00:00 a 06:00 en mm
DESCASC
Precipitaciones de 06:00 a 12:00 en mm
DESCASC
Precipitaciones de 12:00 a 18:00 en mm
DESCASC
Precipitaciones de 18:00 a 24:00 en mm
DESCASC
22-11-2020 15.6 (13:20) 5.9 (08:50) 10.8 9.72 (01:20) 5 (01:10) 0 0 0 0 0
21-11-2020 17.1 (13:30) 7.3 (19:00) 12.2 9.44 (22:20) 5.28 (21:00) 0 0 0 0 0
20-11-2020 18.6 (13:20) 8.4 (04:50) 13.5 6.11 (01:50) 3.33 (01:50) 0 0 0 0 0
19-11-2020 20.4 (14:00) 10.1 (00:00) 15.3 8.06 (19:40) 4.17 (19:40) 0 0 0 0 0
18-11-2020 19.6 (13:40) 8.6 (00:00) 14.1 3.33 (12:10) 1.67 (14:50) 0 0 0 0 0
17-11-2020 18.3 (12:40) 8.8 (00:00) 13.5 5.56 (03:50) 2.78 (03:50) 0 0 0 0 0
16-11-2020 15 (12:40) 8.2 (00:00) 11.6 7.5 (05:50) 4.44 (05:50) 0 0 0 0 0
15-11-2020 12.1 (22:50) 9.5 (00:00) 10.8 8.61 (13:50) 3.89 (13:50) 9.8 4.8 3.8 0 1.2
14-11-2020 9.9 (17:10) 7.7 (00:00) 8.8 8.06 (15:00) 3.61 (14:50) 2.2 0.4 0.6 1 0.2
13-11-2020 9.8 (15:30) 6.1 (00:00) 8 8.89 (13:00) 5 (13:30) 0 0 0 0 0
12-11-2020 9.5 (14:30) 6.9 (00:00) 8.2 11.11 (19:40) 5.83 (13:20) 0 0 0 0 0
11-11-2020 12.7 (14:20) 5.7 (00:00) 9.2 11.11 (05:50) 6.11 (06:00) 0.2 0.2 0 0 0
10-11-2020 11.8 (14:40) 6 (00:00) 8.9 5.83 (22:40) 3.33 (10:00) 0 0 0 0 0
09-11-2020 10.9 (16:20) 4.9 (00:00) 7.9 6.39 (00:30) 2.78 (00:10) 0.8 0.8 0 0 0
08-11-2020 8.3 (19:50) 6.9 (00:00) 7.6 10.28 (22:50) 5.56 (22:50) 32.6 0.2 9.8 9.4 13.2
07-11-2020 8.7 (00:00) 6.9 (00:00) 7.8 11.39 (00:20) 5.28 (00:20) 29.8 23.8 4.6 1.4 0
06-11-2020 11.1 (15:40) 7.9 (00:00) 9.5 17.78 (11:10) 8.61 (11:30) 9.8 0.6 2.2 2.6 4.4
05-11-2020 8.4 (15:20) 6.2 (00:00) 7.3 22.22 (06:50) 10 (06:10) 56.8 8.2 17 30.8 0.8
04-11-2020 7.9 (00:00) 5.1 (00:00) 6.5 14.72 (22:30) 6.94 (20:30) 21.8 0 0 7.2 14.6
03-11-2020 15.9 (12:50) 7.9 (00:00) 11.9 8.33 (22:20) 4.17 (22:10) 0 0 0 0 0
02-11-2020 17.5 (13:20) 11.1 (00:00) 14.3 5.28 (19:50) 2.78 (19:30) 0 0 0 0 0
01-11-2020 19.2 (13:30) 8.8 (00:00) 14 4.17 (14:20) 2.22 (14:10) 0 0 0 0 0
31-10-2020 19.2 (15:00) 9.8 (00:00) 14.5 4.72 (00:30) 2.22 (00:20) 0 0 0 0 0
30-10-2020 18.6 (15:30) 8.9 (00:00) 13.8 4.72 (14:20) 1.94 (10:10) 0 0 0 0 0
29-10-2020 15.4 (15:50) 5.2 (00:00) 10.3 10.28 (11:30) 5 (11:40) 0.2 0.2 0 0 0
28-10-2020 11 (14:00) 5.7 (00:00) 8.3 6.67 (14:40) 3.33 (15:20) 2.4 0.2 2 0.2 0
27-10-2020 10.3 (13:40) 1.6 (00:00) 6 8.06 (07:00) 5 (07:00) 0.8 0 0 0 0.8
26-10-2020 7.9 (13:30) 2.2 (00:00) 5.1 16.39 (09:00) 7.22 (09:20) 0 0 0 0 0

Gráficas

Temp. máximas Temp. mínimas Temp. medias Precipitaciones Rachas de viento máximas Velocidades máximas media en intervalos de 10 minutos

Datos horarios

Fecha y hora oficial Temperatura (ºC) Velocidad del viento (km/h) Dirección del viento Racha (km/h) Dirección de racha Precipitación (mm) Presión (hPa) Tendencia (hPa) Humedad (%)
2020-11-24 23:00:00 5.4 4 Sudeste 11 Sudeste 0 -- -- 94
2020-11-24 22:00:00 5.1 3 Sudeste 9 Sur 0 -- -- 92
2020-11-24 21:00:00 5.4 2 Sudeste 6 Sudeste 0 -- -- 90
2020-11-24 20:00:00 4.4 0 Calma 3 Sur 0 -- -- 91
2020-11-24 19:00:00 4.3 0 Calma 6 Sudeste 0 -- -- 80
2020-11-24 18:00:00 6.2 2 Sudeste 10 Este 0 -- -- 72
2020-11-24 17:00:00 7.7 6 Este 16 Este 0 -- -- 71
2020-11-24 16:00:00 9.1 4 Este 16 Este 0 -- -- 67
2020-11-24 15:00:00 8.7 6 Este 17 Este 0 -- -- 70
2020-11-24 14:00:00 9.5 8 Este 17 Este 0 -- -- 65
2020-11-24 13:00:00 9.2 6 Este 15 Nordeste 0 -- -- 67
2020-11-24 12:00:00 9.4 7 Este 15 Nordeste 0 -- -- 68
2020-11-24 11:00:00 8.4 5 Sudeste 14 Este 0 -- -- 73
2020-11-24 10:00:00 6.7 3 Sudeste 9 Este 0 -- -- 79
2020-11-24 09:00:00 5 3 Sudeste 11 Este 0 -- -- 85
2020-11-24 08:00:00 5.1 3 Este 10 Este 0 -- -- 85
2020-11-24 07:00:00 4.7 5 Este 12 Este 0 -- -- 88
2020-11-24 06:00:00 4.3 6 Este 13 Este 0 -- -- 87
2020-11-24 05:00:00 4.9 4 Sudeste 17 Este 0 -- -- 81
2020-11-24 04:00:00 6.4 9 Este 19 Este 0 -- -- 75
2020-11-24 03:00:00 6.7 9 Este 19 Este 0 -- -- 71
2020-11-24 02:00:00 6.8 10 Este 22 Nordeste 0 -- -- 62
2020-11-24 01:00:00 7.2 11 Nordeste 24 Este 0 -- -- 61
2020-11-24 00:00:00 7.1 12 Este 22 Nordeste 0 -- -- 65
2020-11-23 23:00:00 6.8 6 Este 16 Este 0 -- -- 58
2020-11-23 22:00:00 7.1 8 Este 16 Este 0 -- -- 51
2020-11-23 21:00:00 7.9 6 Nordeste 14 Este 0 -- -- 54
2020-11-23 20:00:00 7.8 7 Este 14 Nordeste 0 -- -- 65
2020-11-23 19:00:00 8.3 3 Este 9 Este 0 -- -- 69
2020-11-23 18:00:00 10.7 0 Calma 4 Noroeste 0 -- -- 54
2020-11-23 17:00:00 12.7 4 Noroeste 7 Sudoeste 0 -- -- 59
2020-11-23 16:00:00 14.3 4 Sudoeste 10 Oeste 0 -- -- 52
2020-11-23 15:00:00 15.2 3 Oeste 8 Noroeste 0 -- -- 50
2020-11-23 14:00:00 15.3 4 Noroeste 12 Nordeste 0 -- -- 41
2020-11-23 13:00:00 13.5 7 Este 14 Este 0 -- -- 42
2020-11-23 12:00:00 12.9 6 Este 15 Este 0 -- -- 42
2020-11-23 11:00:00 11.5 8 Este 16 Este 0 -- -- 45
2020-11-23 10:00:00 10 6 Este 15 Este 0 -- -- 43
2020-11-23 09:00:00 7.7 6 Este 14 Nordeste 0 -- -- 47
2020-11-23 08:00:00 7.7 5 Este 11 Nordeste 0 -- -- 41
2020-11-23 07:00:00 7.2 3 Nordeste 3 Nordeste 0 -- -- 37
2020-11-23 06:00:00 6.7 2 Noroeste 2 Noroeste 0 -- -- 43
2020-11-23 05:00:00 6.9 0 Calma 4 Noroeste 0 -- -- 38
2020-11-23 04:00:00 7.5 0 Calma 4 Este 0 -- -- 40
2020-11-23 03:00:00 7.6 2 Nordeste 3 Nordeste 0 -- -- 33
2020-11-23 02:00:00 7.7 0 Calma 2 Noroeste 0 -- -- 42
2020-11-23 01:00:00 8 0 Calma 4 Norte 0 -- -- 42
2020-11-23 00:00:00 7.3 3 Norte 4 Norte 0 -- -- 52
2020-11-22 23:00:00 7.2 2 Norte 4 Norte 0 -- -- 63
2020-11-22 22:00:00 7.5 -- -- -- -- 0 -- -- 51
2020-11-22 21:00:00 7.8 3 Este 7 Este 0 -- -- 35
2020-11-22 20:00:00 8.1 2 Nordeste 8 Este 0 -- -- 38
2020-11-22 19:00:00 9.3 4 Este 7 Este 0 -- -- 46
2020-11-22 18:00:00 11.3 2 Norte 4 Norte 0 -- -- 60
2020-11-22 17:00:00 13.3 2 Noroeste 12 Noroeste 0 -- -- 51
2020-11-22 16:00:00 14.4 2 Oeste 7 Sudeste 0 -- -- 52
2020-11-22 15:00:00 14.2 3 Norte 8 Norte 0 -- -- 50
2020-11-22 14:00:00 14.4 2 Norte 9 Oeste 0 -- -- 45
2020-11-22 13:00:00 14.9 4 Oeste 7 Noroeste 0 -- -- 42
2020-11-22 12:00:00 13.6 3 Noroeste 9 Este 0 -- -- 46
2020-11-22 11:00:00 12 2 Noroeste 5 Oeste 0 -- -- 44
2020-11-22 10:00:00 9.2 0 Calma 4 Sudeste 0 -- -- 46
2020-11-22 09:00:00 5.9 0 Calma 5 Oeste 0 -- -- 50
2020-11-22 08:00:00 6.5 2 Sudoeste 3 Sudoeste 0 -- -- 45
2020-11-22 07:00:00 6.4 0 Calma 3 Sudoeste 0 -- -- 44
2020-11-22 06:00:00 6.9 2 Este 18 Nordeste 0 -- -- 41
2020-11-22 05:00:00 6.4 10 Este 21 Este 0 -- -- 74
2020-11-22 04:00:00 6.6 14 Este 26 Este 0 -- -- 69
2020-11-22 03:00:00 6.7 12 Este 28 Nordeste 0 -- -- 66
2020-11-22 02:00:00 7 16 Este 35 Este 0 -- -- 55
2020-11-22 01:00:00 7.2 17 Este 33 Nordeste 0 -- -- 52
2020-11-22 00:00:00 7.7 16 Este 32 Este 0 -- -- 51
2020-11-21 23:00:00 8 15 Este 34 Nordeste 0 -- -- 52
2020-11-21 22:00:00 7.9 17 Este 34 Este 0 -- -- 48
2020-11-21 21:00:00 7.9 19 Este 33 Este 0 -- -- 52
2020-11-21 20:00:00 7.7 12 Este 28 Este 0 -- -- 57
2020-11-21 19:00:00 7.3 10 Este 23 Este 0 -- -- 64
2020-11-21 18:00:00 9.8 8 Este 15 Este 0 -- -- 43
2020-11-21 17:00:00 12 7 Este 17 Este 0 -- -- 34
2020-11-21 16:00:00 14.4 6 Este 14 Nordeste 0 -- -- 25
2020-11-21 15:00:00 15.4 4 Norte 9 Sur 0 -- -- 39
2020-11-21 14:00:00 16.8 4 Sur 11 Sur 0 -- -- 38
2020-11-21 13:00:00 16.2 4 Oeste 12 Este 0 -- -- 37
2020-11-21 12:00:00 12.4 8 Este 16 Este 0 -- -- 42
2020-11-21 11:00:00 11.9 8 Este 24 Este 0 -- -- 38
2020-11-21 10:00:00 11.1 9 Este 21 Este 0 -- -- 34
2020-11-21 09:00:00 8.7 8 Este 21 Este 0 -- -- 44
2020-11-21 08:00:00 8.5 9 Nordeste 20 Nordeste 0 -- -- 46
2020-11-21 07:00:00 8.8 9 Este 18 Este 0 -- -- 48
2020-11-21 06:00:00 8.6 2 Norte 10 Nordeste 0 -- -- 36
2020-11-21 05:00:00 8.5 0 Calma 9 Nordeste 0 -- -- 42
2020-11-21 04:00:00 9.2 5 Este 20 Este 0 -- -- 43
2020-11-21 03:00:00 8.1 5 Nordeste 22 Este 0 -- -- 53
2020-11-21 02:00:00 9.1 5 Este 19 Este 0 -- -- 56
2020-11-21 01:00:00 11.3 8 Este 14 Nordeste 0 -- -- 43
2020-11-21 00:00:00 11 4 Nordeste 6 Nordeste 0 -- -- 40
2020-11-20 23:00:00 10.5 0 Calma 3 Nordeste 0 -- -- 43
2020-11-20 22:00:00 10.6 3 Nordeste 4 Este 0 -- -- 48
2020-11-20 21:00:00 11 4 Nordeste 13 Este 0 -- -- 52
2020-11-20 20:00:00 8.8 5 Norte 11 Noroeste 0 -- -- 52
2020-11-20 19:00:00 9.7 9 Norte 14 Norte 0 -- -- 59
2020-11-20 18:00:00 12.3 0 Calma 19 Norte 0 -- -- 52
2020-11-20 17:00:00 15 8 Noroeste 18 Noroeste 0 -- -- 44
2020-11-20 16:00:00 16.7 5 Noroeste 14 Norte 0 -- -- 46
2020-11-20 15:00:00 17.9 5 Noroeste 9 Noroeste 0 -- -- 43
2020-11-20 14:00:00 17.9 5 Noroeste 14 Norte 0 -- -- 37
2020-11-20 13:00:00 17.9 8 Norte 17 Noroeste 0 -- -- 29
2020-11-20 12:00:00 17.4 5 Norte 19 Noroeste 0 -- -- 28
2020-11-20 11:00:00 16.5 11 Norte 21 Norte 0 -- -- 30
2020-11-20 10:00:00 14.2 3 Norte 10 Nordeste 0 -- -- 31
2020-11-20 09:00:00 10.2 4 Noroeste 9 Noroeste 0 -- -- 38
2020-11-20 08:00:00 10.1 4 Norte 7 Noroeste 0 -- -- 35
2020-11-20 07:00:00 9.3 3 Norte 6 Norte 0 -- -- 39
2020-11-20 06:00:00 8.9 3 Norte 7 Norte 0 -- -- 45
2020-11-20 05:00:00 8.4 4 Norte 14 Norte 0 -- -- 60
2020-11-20 04:00:00 9.7 7 Noroeste 10 Norte 0 -- -- 70
2020-11-20 03:00:00 10.7 6 Este 18 Este 0 -- -- 68
2020-11-20 02:00:00 10.8 10 Este 22 Este 0 -- -- 69
2020-11-20 01:00:00 9.9 7 Este 13 Este 0 -- -- 69
2020-11-20 00:00:00 10.6 7 Este 14 Este 0 -- -- 74
2020-11-19 23:00:00 11.5 3 Este 7 Este 0 -- -- 62
2020-11-19 22:00:00 11.9 3 Este 8 Este 0 -- -- 56
2020-11-19 21:00:00 12.4 3 Nordeste 20 Nordeste 0 -- -- 51
2020-11-19 20:00:00 13.9 11 Nordeste 29 Norte 0 -- -- 48
2020-11-19 19:00:00 13.9 10 Norte 20 Norte 0 -- -- 52
2020-11-19 18:00:00 15 6 Norte 15 Norte 0 -- -- 51
2020-11-19 17:00:00 17.3 8 Norte 26 Noroeste 0 -- -- 48
2020-11-19 16:00:00 19.3 10 Norte 18 Noroeste 0 -- -- 44
2020-11-19 15:00:00 20.1 8 Noroeste 15 Noroeste 0 -- -- 42
2020-11-19 14:00:00 20.4 5 Oeste 20 Noroeste 0 -- -- 42
2020-11-19 13:00:00 20 9 Norte 24 Norte 0 -- -- 39
2020-11-19 12:00:00 19.6 10 Norte 28 Norte 0 -- -- 42
2020-11-19 11:00:00 18.3 10 Norte 21 Noroeste 0 -- -- 45
2020-11-19 10:00:00 16.4 0 Calma 9 Nordeste 0 -- -- 50
2020-11-19 09:00:00 14.2 5 Nordeste 15 Norte 0 -- -- 48
2020-11-19 08:00:00 13 4 Norte 16 Nordeste 0 -- -- 52
2020-11-19 07:00:00 13 9 Norte 16 Norte 0 -- -- 51
2020-11-19 06:00:00 12.9 0 Calma 12 Este 0 -- -- 51
2020-11-19 05:00:00 13.8 5 Este 13 Este 0 -- -- 49
2020-11-19 04:00:00 13.8 8 Este 14 Nordeste 0 -- -- 49
2020-11-19 03:00:00 13.9 5 Nordeste 12 Norte 0 -- -- 47
2020-11-19 02:00:00 13.9 4 Nordeste 9 Norte 0 -- -- 48
2020-11-19 01:00:00 14.3 6 Nordeste 12 Nordeste 0 -- -- 46
2020-11-19 00:00:00 13.1 4 Norte 7 Nordeste 0 -- -- 49
2020-11-18 23:00:00 12.3 5 Norte 8 Norte 0 -- -- 54
2020-11-18 22:00:00 11.7 4 Norte 7 Norte 0 -- -- 57
2020-11-18 21:00:00 12 4 Noroeste 6 Noroeste 0 -- -- 56
2020-11-18 20:00:00 12.1 4 Noroeste 5 Noroeste 0 -- -- 57
2020-11-18 19:00:00 12.8 0 Calma 7 Oeste 0 -- -- 48
2020-11-18 18:00:00 15.5 0 Calma 9 Sudoeste 0 -- -- 51
2020-11-18 17:00:00 18 6 Sudoeste 9 Oeste 0 -- -- 44
2020-11-18 16:00:00 19.3 5 Oeste 10 Sudoeste 0 -- -- 43
2020-11-18 15:00:00 19.5 4 Sudoeste 12 Sudoeste 0 -- -- 42
2020-11-18 14:00:00 19.6 4 Sur 10 Sudoeste 0 -- -- 37
2020-11-18 13:00:00 19.2 4 Sudoeste 12 Sudeste 0 -- -- 43
2020-11-18 12:00:00 17.9 3 Sur 9 Sudoeste 0 -- -- 40
2020-11-18 11:00:00 16 2 Sur 6 Sur 0 -- -- 45
2020-11-18 10:00:00 13.4 0 Calma 5 Este 0 -- -- 56
2020-11-18 09:00:00 9.4 2 Este -- -- 0 -- -- 61
2020-11-18 08:00:00 9.2 2 Sudeste 3 Sudeste 0 -- -- 61
2020-11-18 07:00:00 9.1 2 Sudeste 3 Este 0 -- -- 64
2020-11-18 06:00:00 8.8 0 Calma 4 Sudeste 0 -- -- 70
2020-11-18 05:00:00 8.9 2 Sudeste 4 Sudeste 0 -- -- 75
2020-11-18 04:00:00 9.6 0 Calma 0 Calma 0 -- -- 87
2020-11-18 03:00:00 9.8 0 Calma 4 Sudoeste 0 -- -- 87
2020-11-18 02:00:00 9.4 3 Sudoeste 6 Sudeste 0 -- -- 85
2020-11-18 01:00:00 9.6 3 Sur 7 Sudoeste 0 -- -- 79
2020-11-18 00:00:00 10 3 Sudoeste 6 Sudoeste 0 -- -- 75
2020-11-17 23:00:00 9.9 3 Sudoeste 8 Sudoeste 0 -- -- 70
2020-11-17 22:00:00 9.2 2 Sur 5 Sur 0 -- -- 68
2020-11-17 21:00:00 9.2 3 Sudeste 4 Sudeste 0 -- -- 48
2020-11-17 20:00:00 10.4 0 Calma 2 Este 0 -- -- 38
2020-11-17 19:00:00 11.5 2 Este 2 Este 0 -- -- 43
2020-11-17 18:00:00 14.3 0 Calma 9 Sur 0 -- -- 52
2020-11-17 17:00:00 16.5 5 Sur 12 Sur 0 -- -- 42
2020-11-17 16:00:00 17.3 4 Sur 14 Sudoeste 0 -- -- 38
2020-11-17 15:00:00 17.9 6 Sur 14 Sur 0 -- -- 37
2020-11-17 14:00:00 18.3 7 Sur 17 Sur 0 -- -- 43
2020-11-17 13:00:00 18.1 6 Sur 18 Sur 0 -- -- 39
2020-11-17 12:00:00 17.4 3 Sudoeste 9 Sur 0 -- -- 47
2020-11-17 11:00:00 15.3 4 Sur 7 Sur 0 -- -- 46
2020-11-17 10:00:00 12.6 3 Este 9 Este 0 -- -- 56
2020-11-17 09:00:00 10.1 5 Este 12 Este 0 -- -- 67
2020-11-17 08:00:00 9.5 6 Este 15 Este 0 -- -- 71
2020-11-17 07:00:00 9.4 6 Este 13 Este 0 -- -- 76
2020-11-17 06:00:00 9.8 5 Este 20 Este 0 -- -- 77
2020-11-17 05:00:00 9.2 4 Sudeste 18 Este 0 -- -- 85
2020-11-17 04:00:00 9.9 10 Nordeste 20 Este 0 -- -- 83
2020-11-17 03:00:00 9.6 7 Este 14 Este 0 -- -- 84
2020-11-17 02:00:00 9.5 3 Este 12 Nordeste 0 -- -- 84
2020-11-17 01:00:00 10.1 7 Nordeste 16 Este 0 -- -- 79
2020-11-17 00:00:00 10.1 7 Este 19 Este 0 -- -- 82
2020-11-16 23:00:00 9.9 8 Este 22 Nordeste 0 -- -- 95
2020-11-16 22:00:00 10.2 10 Nordeste 22 Nordeste 0 -- -- 94
2020-11-16 21:00:00 9.3 4 Este 11 Este 0 -- -- 96
2020-11-16 20:00:00 9.1 6 Norte 12 Nordeste 0 -- -- 94
2020-11-16 19:00:00 9.7 7 Norte 14 Norte 0 -- -- 94
2020-11-16 18:00:00 11.3 0 Calma 8 Sudoeste 0 -- -- 89
2020-11-16 17:00:00 13 5 Oeste 10 Oeste 0 -- -- 85
2020-11-16 16:00:00 14 4 Sudoeste 14 Sudoeste 0 -- -- 84
2020-11-16 15:00:00 14.4 5 Sur 13 Sudoeste 0 -- -- 79
2020-11-16 14:00:00 14.9 6 Sur 17 Sur 0 -- -- 73
2020-11-16 13:00:00 14.7 6 Sur 14 Sudoeste 0 -- -- 76
2020-11-16 12:00:00 14.2 4 Sudoeste 9 Sudoeste 0 -- -- 77
2020-11-16 11:00:00 12.6 4 Noroeste 11 Norte 0 -- -- 72
2020-11-16 10:00:00 10.5 5 Norte 9 Noroeste 0 -- -- 93
2020-11-16 09:00:00 8.3 6 Norte 18 Noroeste 0 -- -- 96
2020-11-16 08:00:00 8.5 9 Noroeste 19 Noroeste 0 -- -- 95
2020-11-16 07:00:00 9.4 14 Noroeste 27 Noroeste 0 -- -- 96
2020-11-16 06:00:00 9.9 15 Noroeste 27 Noroeste 0 -- -- 99
2020-11-16 05:00:00 9.5 8 Oeste 14 Oeste 0 -- -- 98
2020-11-16 04:00:00 9.8 3 Sudoeste 20 Oeste 0 -- -- 99
2020-11-16 03:00:00 10.4 9 Oeste 19 Sudoeste 0 -- -- 100
2020-11-16 02:00:00 10.3 9 Oeste 21 Oeste 0 -- -- 100
2020-11-16 01:00:00 10.9 13 Oeste 24 Oeste 0 -- -- 100
2020-11-16 00:00:00 11.4 11 Oeste 25 Sudoeste 1.2 -- -- 100
2020-11-15 23:00:00 12 9 Sudoeste 26 Oeste 0 -- -- 100
2020-11-15 22:00:00 12 6 Sur 20 Sur 0 -- -- 100
2020-11-15 21:00:00 12 8 Sur 18 Sur 0 -- -- 100
2020-11-15 20:00:00 11.8 8 Sudoeste 23 Sudoeste 0 -- -- 100
2020-11-15 19:00:00 11.7 4 Sur 15 Sudoeste 0 -- -- 100
2020-11-15 18:00:00 11.7 9 Sudoeste 21 Sur 0 -- -- 100
2020-11-15 17:00:00 11.7 6 Sur 25 Sudoeste 0 -- -- 100
2020-11-15 16:00:00 11.6 6 Sudoeste 25 Sudoeste 0 -- -- 100
2020-11-15 15:00:00 11.2 11 Sudoeste 26 Sudoeste 0 -- -- 100
2020-11-15 14:00:00 11.1 10 Sudoeste 31 Sur 0 -- -- 100
2020-11-15 13:00:00 11.1 8 Sur 20 Sudoeste 0 -- -- 100
2020-11-15 12:00:00 10.8 5 Sur 19 Sur 0.6 -- -- 100
2020-11-15 11:00:00 10.8 7 Sur 16 Sur 0.4 -- -- 100
2020-11-15 10:00:00 10.9 6 Sur 17 Sudoeste 0.4 -- -- 100
2020-11-15 09:00:00 10.7 8 Sur 19 Sudoeste 0.6 -- -- 100
2020-11-15 08:00:00 10.6 9 Sur 30 Sur 1 -- -- 100
2020-11-15 07:00:00 10.7 11 Sur 27 Sudoeste 0.8 -- -- 100
2020-11-15 06:00:00 10.5 8 Sur 20 Sur 0.8 -- -- 100
2020-11-15 05:00:00 10.5 7 Sur 17 Sur 1.4 -- -- 100
2020-11-15 04:00:00 10.5 7 Sur 21 Sur 1 -- -- 100
2020-11-15 03:00:00 10.1 6 Sudeste 13 Sudeste 1.2 -- -- 100
2020-11-15 02:00:00 9.9 6 Sudeste 16 Sur 0.4 -- -- 100
2020-11-15 01:00:00 9.6 4 Sur 12 Sudeste 0 -- -- 100
2020-11-15 00:00:00 9.6 3 Sudeste 11 Sur 0 -- -- 100
2020-11-14 23:00:00 9.4 0 Calma 8 Sudeste 0 -- -- 100
2020-11-14 22:00:00 9.3 2 Sur 7 Sur 0 -- -- 100
2020-11-14 21:00:00 9.4 3 Sudoeste 10 Sudoeste 0 -- -- 100
2020-11-14 20:00:00 9 4 Sudoeste 21 Sudoeste 0 -- -- 100
2020-11-14 19:00:00 9.8 5 Sur 14 Sudoeste 0.2 -- -- 100
2020-11-14 18:00:00 9.7 0 Calma 7 Nordeste 0.4 -- -- 100
2020-11-14 17:00:00 9.7 2 Sur 11 Sudeste 0 -- -- 100
2020-11-14 16:00:00 9.5 7 Este 24 Este 0.2 -- -- 100
2020-11-14 15:00:00 9.6 13 Este 29 Este 0.2 -- -- 100
2020-11-14 14:00:00 9.2 10 Este 22 Sudeste 0.2 -- -- 100
2020-11-14 13:00:00 9.4 10 Este 22 Este 0 -- -- 99
2020-11-14 12:00:00 8.6 8 Este 23 Este 0 -- -- 100
2020-11-14 11:00:00 9 10 Este 25 Este 0 -- -- 99
2020-11-14 10:00:00 8.6 8 Este 17 Este 0 -- -- 100
2020-11-14 09:00:00 8.1 6 Este 15 Este 0.2 -- -- 100
2020-11-14 08:00:00 7.9 6 Este 19 Este 0.2 -- -- 100
2020-11-14 07:00:00 8 7 Este 15 Nordeste 0.2 -- -- 99
2020-11-14 06:00:00 7.9 9 Este 19 Este 0.4 -- -- 98
2020-11-14 05:00:00 8.3 10 Este 22 Nordeste 0 -- -- 91
2020-11-14 04:00:00 8.6 8 Este 19 Este 0 -- -- 92
2020-11-14 03:00:00 8.1 6 Este 17 Este 0 -- -- 90
2020-11-14 02:00:00 8 9 Este 18 Este 0 -- -- 89
2020-11-14 01:00:00 7.8 9 Este 20 Nordeste 0 -- -- 86
2020-11-14 00:00:00 8 11 Este 22 Nordeste 0 -- -- 84
2020-11-13 23:00:00 8.2 12 Este 23 Este 0 -- -- 80
2020-11-13 22:00:00 8.1 11 Este 20 Nordeste 0 -- -- 80
2020-11-13 21:00:00 7.9 10 Este 21 Este 0 -- -- 83
2020-11-13 20:00:00 8.1 12 Este 23 Este 0 -- -- 81
2020-11-13 19:00:00 8 10 Este 23 Nordeste 0 -- -- 82
2020-11-13 18:00:00 8.1 10 Este 24 Este 0 -- -- 82
2020-11-13 17:00:00 8.8 13 Este 30 Este 0 -- -- 79
2020-11-13 16:00:00 9.3 12 Este 27 Este 0 -- -- 78
2020-11-13 15:00:00 9.5 13 Este 30 Nordeste 0 -- -- 82
2020-11-13 14:00:00 8.8 16 Este 32 Este 0 -- -- 83
2020-11-13 13:00:00 8.5 16 Este 32 Este 0 -- -- 84
2020-11-13 12:00:00 8.5 9 Este 22 Este 0 -- -- 82
2020-11-13 11:00:00 8.8 9 Este 17 Este 0 -- -- 81
2020-11-13 10:00:00 8.6 9 Este 17 Este 0 -- -- 84
2020-11-13 09:00:00 7.4 9 Este 17 Nordeste 0 -- -- 88
2020-11-13 08:00:00 6.7 9 Este 18 Nordeste 0 -- -- 90
2020-11-13 07:00:00 6.5 8 Este 17 Nordeste 0 -- -- 90
2020-11-13 06:00:00 6.4 8 Este 19 Este 0 -- -- 91
2020-11-13 05:00:00 6.4 8 Este 17 Este 0 -- -- 91
2020-11-13 04:00:00 6.5 9 Este 16 Este 0 -- -- 91
2020-11-13 03:00:00 7.2 12 Este 28 Este 0 -- -- 89
2020-11-13 02:00:00 7.3 14 Este 28 Este 0 -- -- 87
2020-11-13 01:00:00 7.5 14 Este 31 Este 0 -- -- 87
2020-11-13 00:00:00 7.3 15 Este 28 Este 0 -- -- 87
2020-11-12 23:00:00 7.5 9 Este 21 Este 0 -- -- 86
2020-11-12 22:00:00 7.3 9 Este 32 Este 0 -- -- 88
2020-11-12 21:00:00 7.1 16 Este 38 Este 0 -- -- 97
2020-11-12 20:00:00 7.6 17 Este 40 Este 0 -- -- 97
2020-11-12 19:00:00 7.8 18 Este 34 Nordeste 0 -- -- 92
2020-11-12 18:00:00 7.9 17 Este 32 Este 0 -- -- 91
2020-11-12 17:00:00 8.5 16 Este 36 Nordeste 0 -- -- 85
2020-11-12 16:00:00 8.9 16 Este 37 Este 0 -- -- 83
2020-11-12 15:00:00 9.3 18 Este 36 Este 0 -- -- 80
2020-11-12 14:00:00 9.2 19 Este 36 Este 0 -- -- 80
2020-11-12 13:00:00 9.1 17 Este 33 Nordeste 0 -- -- 81
2020-11-12 12:00:00 9.2 6 Nordeste 24 Nordeste 0 -- -- 82
2020-11-12 11:00:00 8.7 6 Nordeste 15 Nordeste 0 -- -- 81
2020-11-12 10:00:00 8 4 Nordeste 12 Nordeste 0 -- -- 84
2020-11-12 09:00:00 7.5 4 Nordeste 16 Este 0 -- -- 86
2020-11-12 08:00:00 7.3 7 Este 16 Este 0 -- -- 86
2020-11-12 07:00:00 7.5 4 Este 10 Este 0 -- -- 84
2020-11-12 06:00:00 7.6 4 Este 8 Este 0 -- -- 83
2020-11-12 05:00:00 7.4 5 Este 10 Este 0 -- -- 83
2020-11-12 04:00:00 7.6 4 Nordeste 8 Nordeste 0 -- -- 83
2020-11-12 03:00:00 6.9 4 Este 10 Este 0 -- -- 87
2020-11-12 02:00:00 7.5 5 Este 9 Este 0 -- -- 85
2020-11-12 01:00:00 7.3 3 Este 6 Este 0 -- -- 87
2020-11-12 00:00:00 6.9 3 Sudeste 6 Sudeste 0 -- -- 84
2020-11-11 23:00:00 7.8 0 Calma 9 Este 0 -- -- 85
2020-11-11 22:00:00 7.5 2 Este 6 Este 0 -- -- 82
2020-11-11 21:00:00 8.2 4 Este 9 Este 0 -- -- 86
2020-11-11 20:00:00 8.1 0 Calma 6 Sudeste 0 -- -- 86
2020-11-11 19:00:00 7.9 2 Sudeste 5 Sudeste 0 -- -- 83
2020-11-11 18:00:00 9.8 0 Calma 10 Sur 0 -- -- 75
2020-11-11 17:00:00 11.7 6 Sur 13 Sudoeste 0 -- -- 67
2020-11-11 16:00:00 11.7 5 Sudeste 15 Sur 0 -- -- 68
2020-11-11 15:00:00 12.1 5 Sudeste 18 Sur 0 -- -- 66
2020-11-11 14:00:00 12.4 5 Sudeste 20 Este 0 -- -- 67
2020-11-11 13:00:00 11.2 12 Este 23 Este 0 -- -- 69
2020-11-11 12:00:00 10.3 12 Este 27 Este 0 -- -- 73
2020-11-11 11:00:00 9.1 14 Este 28 Este 0 -- -- 78
2020-11-11 10:00:00 8 12 Este 28 Este 0 -- -- 81
2020-11-11 09:00:00 6.5 16 Este 32 Este 0 -- -- 87
2020-11-11 08:00:00 5.7 17 Este 33 Este 0 -- -- 92
2020-11-11 07:00:00 5.8 18 Este 37 Este 0 -- -- 96
2020-11-11 06:00:00 6 22 Este 40 Este 0 -- -- 97
2020-11-11 05:00:00 6.4 19 Este 35 Este 0.2 -- -- 98
2020-11-11 04:00:00 6.6 18 Este 33 Este 0 -- -- 100
2020-11-11 03:00:00 6.9 14 Este 26 Este 0 -- -- 100
2020-11-11 02:00:00 7.4 11 Este 24 Este 0 -- -- 100
2020-11-11 01:00:00 7.4 13 Este 24 Este 0 -- -- 100
2020-11-11 00:00:00 6.9 7 Este 15 Sudeste 0 -- -- 98
2020-11-10 23:00:00 7.5 7 Este 21 Este 0 -- -- 99
2020-11-10 22:00:00 7.5 10 Este 19 Este 0 -- -- 100
2020-11-10 21:00:00 7.7 11 Este 19 Este 0 -- -- 100
2020-11-10 20:00:00 7.4 4 Este 10 Este 0 -- -- 95
2020-11-10 19:00:00 8.2 3 Este 12 Nordeste 0 -- -- 92
2020-11-10 18:00:00 8.8 5 Este 15 Nordeste 0 -- -- 91
2020-11-10 17:00:00 9.8 4 Este 13 Este 0 -- -- 74
2020-11-10 16:00:00 11.1 6 Este 14 Este 0 -- -- 73
2020-11-10 15:00:00 11.5 7 Este 14 Este 0 -- -- 72
2020-11-10 14:00:00 11.6 6 Este 18 Este 0 -- -- 75
2020-11-10 13:00:00 11 7 Este 18 Nordeste 0 -- -- 80
2020-11-10 12:00:00 10.7 9 Este 18 Este 0 -- -- 84
2020-11-10 11:00:00 9.8 10 Este 20 Este 0 -- -- 81
2020-11-10 10:00:00 8.9 12 Este 19 Este 0 -- -- 88
2020-11-10 09:00:00 6.9 6 Este 13 Este 0 -- -- 96
2020-11-10 08:00:00 6.1 6 Este 15 Este 0 -- -- 94
2020-11-10 07:00:00 6.2 7 Este 14 Este 0 -- -- 95
2020-11-10 06:00:00 6 7 Este 12 Nordeste 0 -- -- 94
2020-11-10 05:00:00 6.3 5 Este 12 Este 0 -- -- 92
2020-11-10 04:00:00 6.1 6 Este 13 Este 0 -- -- 92
2020-11-10 03:00:00 6.2 6 Este 12 Este 0 -- -- 93
2020-11-10 02:00:00 6.2 6 Este 11 Nordeste 0 -- -- 95
2020-11-10 01:00:00 6.1 6 Este 11 Este 0 -- -- 92
2020-11-10 00:00:00 6.8 5 Este 9 Este 0 -- -- 94
2020-11-09 23:00:00 6.2 3 Norte 12 Norte 0 -- -- 97
2020-11-09 22:00:00 6.4 5 Norte 10 Norte 0 -- -- 98
2020-11-09 21:00:00 6.6 3 Norte 7 Norte 0 -- -- 97
2020-11-09 20:00:00 6.9 4 Norte 7 Norte 0 -- -- 98
2020-11-09 19:00:00 7.4 3 Oeste 9 Oeste 0 -- -- 96
2020-11-09 18:00:00 8.9 4 Sudoeste 9 Sudoeste 0 -- -- 91
2020-11-09 17:00:00 10.7 5 Sudoeste 12 Sudoeste 0 -- -- 87
2020-11-09 16:00:00 10.5 5 Oeste 13 Sur 0 -- -- 92
2020-11-09 15:00:00 10 5 Oeste 14 Oeste 0 -- -- 99
2020-11-09 14:00:00 10.2 6 Noroeste 15 Noroeste 0 -- -- 96
2020-11-09 13:00:00 9.2 3 Sudoeste 11 Sudoeste 0 -- -- 100
2020-11-09 12:00:00 8.3 3 Sudoeste 8 Oeste 0 -- -- 100
2020-11-09 11:00:00 7.6 3 Sudoeste 6 Sudoeste 0 -- -- 100
2020-11-09 10:00:00 7.7 2 Sudeste 4 Sudeste 0 -- -- 100
2020-11-09 09:00:00 6 0 Calma 6 Oeste 0 -- -- 100
2020-11-09 08:00:00 4.9 0 Calma 4 Este 0 -- -- 100
2020-11-09 07:00:00 5.4 2 Sudeste 5 Este 0 -- -- 100
2020-11-09 06:00:00 6.3 2 Sudeste 11 Este 0 -- -- 100
2020-11-09 05:00:00 7.6 4 Este 15 Este 0.2 -- -- 100
2020-11-09 04:00:00 7.8 4 Este 14 Este 0.4 -- -- 100
2020-11-09 03:00:00 7.8 8 Este 19 Este 0.2 -- -- 100
2020-11-09 02:00:00 7.9 6 Este 17 Este 0 -- -- 100
2020-11-09 01:00:00 7.9 7 Sudeste 23 Este 0 -- -- 100
2020-11-09 00:00:00 7.9 14 Este 28 Este 0.2 -- -- 100
2020-11-08 23:00:00 8.1 18 Este 37 Este 4.6 -- -- 100
2020-11-08 22:00:00 8.2 13 Este 26 Este 1 -- -- 100
2020-11-08 21:00:00 8.2 14 Este 28 Este 0 -- -- 100
2020-11-08 20:00:00 8.3 14 Este 29 Este 1.8 -- -- 100
2020-11-08 19:00:00 8.1 9 Sudeste 32 Este 5.6 -- -- 100
2020-11-08 18:00:00 8.2 13 Este 29 Sudeste 3.4 -- -- 100
2020-11-08 17:00:00 8 14 Este 32 Este 1.2 -- -- 100
2020-11-08 16:00:00 8 15 Este 27 Este 3.2 -- -- 100
2020-11-08 15:00:00 7.9 10 Este 26 Este 0.8 -- -- 100
2020-11-08 14:00:00 7.7 13 Este 25 Este 0.4 -- -- 100
2020-11-08 13:00:00 7.6 11 Este 26 Este 0.4 -- -- 100
2020-11-08 12:00:00 7.1 13 Este 30 Este 0.4 -- -- 100
2020-11-08 11:00:00 7 14 Este 30 Este 2.6 -- -- 100
2020-11-08 10:00:00 7.1 15 Este 33 Este 4.4 -- -- 100
2020-11-08 09:00:00 7.1 16 Este 33 Este 2.4 -- -- 100
2020-11-08 08:00:00 7.1 15 Este 31 Este 0 -- -- 100
2020-11-08 07:00:00 7.1 12 Este 31 Este 0 -- -- 100
2020-11-08 06:00:00 7.2 13 Sudeste 29 Sudeste 0 -- -- 100
2020-11-08 05:00:00 7.2 9 Sudeste 28 Este 0 -- -- 100
2020-11-08 04:00:00 7.4 9 Sudeste 21 Este 0 -- -- 100
2020-11-08 03:00:00 7.5 9 Sudeste 25 Este 0 -- -- 100
2020-11-08 02:00:00 7.5 10 Sudeste 24 Sudeste 0.2 -- -- 100
2020-11-08 01:00:00 7.6 12 Este 34 Este 0 -- -- 100
2020-11-08 00:00:00 7.6 10 Este 20 Este 0 -- -- 100
2020-11-07 23:00:00 7.7 9 Sudeste 21 Sur 0 -- -- 100
2020-11-07 22:00:00 7.7 9 Sudeste 21 Este 0 -- -- 100
2020-11-07 21:00:00 7.7 9 Sudeste 19 Sudeste 0 -- -- 100
2020-11-07 20:00:00 7.6 6 Sudeste 19 Sur 0 -- -- 100
2020-11-07 19:00:00 7.6 6 Sudeste 17 Sudeste 0 -- -- 100
2020-11-07 18:00:00 7.4 5 Sudeste 18 Sur 0 -- -- 100
2020-11-07 17:00:00 7.8 8 Sudeste 22 Sur 0 -- -- 100
2020-11-07 16:00:00 7.9 7 Sur 18 Sudoeste 0.2 -- -- 100
2020-11-07 15:00:00 7.8 6 Sudoeste 19 Sudoeste 0.4 -- -- 100
2020-11-07 14:00:00 7.8 7 Sudoeste 24 Sudoeste 0 -- -- 100
2020-11-07 13:00:00 7.9 10 Sur 24 Sudoeste 0.8 -- -- 100
2020-11-07 12:00:00 7.5 9 Sudoeste 29 Sudoeste 1 -- -- 100
2020-11-07 11:00:00 7.4 9 Sur 26 Sudoeste 0.6 -- -- 100
2020-11-07 10:00:00 7.2 11 Sur 28 Sudeste 2 -- -- 100
2020-11-07 09:00:00 6.9 9 Sur 24 Sur 0.6 -- -- 100
2020-11-07 08:00:00 7 7 Sudeste 27 Sur 0.2 -- -- 100
2020-11-07 07:00:00 7.1 10 Sudeste 31 Este 0.2 -- -- 100
2020-11-07 06:00:00 7.6 12 Sudeste 34 Este 2.8 -- -- 100
2020-11-07 05:00:00 7.8 10 Sudeste 34 Sudeste 2.4 -- -- 100
2020-11-07 04:00:00 7.6 12 Sudeste 31 Sudeste 1.4 -- -- 100
2020-11-07 03:00:00 8.1 13 Sudeste 38 Sudeste 10.8 -- -- 100
2020-11-07 02:00:00 8.2 14 Sudeste 31 Este 5.8 -- -- 100
2020-11-07 01:00:00 8.6 9 Sudeste 41 Sudeste 0.6 -- -- 100
2020-11-07 00:00:00 8.7 17 Sudeste 45 Este 1.2 -- -- 99
2020-11-06 23:00:00 8.8 16 Este 33 Este 1.2 -- -- 100
2020-11-06 22:00:00 9 10 Sudeste 29 Este 0.6 -- -- 100
2020-11-06 21:00:00 8 15 Sudeste 43 Sudeste 0.8 -- -- 100
2020-11-06 20:00:00 8.2 10 Sudeste 43 Este 0.6 -- -- 100
2020-11-06 19:00:00 10.7 22 Este 51 Este 0 -- -- 100
2020-11-06 18:00:00 10.8 23 Este 54 Este 2 -- -- 99
2020-11-06 17:00:00 10.9 15 Este 44 Este 0.4 -- -- 98
2020-11-06 16:00:00 11.1 20 Este 47 Este 0.2 -- -- 94
2020-11-06 15:00:00 10.8 20 Este 46 Este 0 -- -- 96
2020-11-06 14:00:00 10.6 21 Este 49 Sudeste 0 -- -- 98
2020-11-06 13:00:00 9.9 23 Este 55 Este 0 -- -- 100
2020-11-06 12:00:00 9.5 25 Este 64 Este 0 -- -- 100
2020-11-06 11:00:00 9.1 30 Este 59 Este 0 -- -- 100
2020-11-06 10:00:00 8.6 23 Este 58 Este 0.2 -- -- 100
2020-11-06 09:00:00 7.9 26 Este 53 Este 0.2 -- -- 100
2020-11-06 08:00:00 8.1 14 Este 25 Este 0.4 -- -- 99
2020-11-06 07:00:00 8.1 15 Este 34 Este 1.4 -- -- 100
2020-11-06 06:00:00 8.4 18 Este 39 Este 0.2 -- -- 97
2020-11-06 05:00:00 8.4 20 Este 37 Este 0.2 -- -- 99
2020-11-06 04:00:00 8.4 19 Este 49 Sudeste 0.2 -- -- 100
2020-11-06 03:00:00 8.6 21 Este 49 Este 0 -- -- 100
2020-11-06 02:00:00 8.6 23 Este 50 Este 0 -- -- 100
2020-11-06 01:00:00 8.4 24 Este 46 Este 0 -- -- 100
2020-11-06 00:00:00 7.9 20 Este 43 Sudeste 0 -- -- 100
2020-11-05 23:00:00 7 19 Este 40 Este 0 -- -- 100
2020-11-05 22:00:00 6.6 18 Este 42 Este 0 -- -- 100
2020-11-05 21:00:00 6.8 18 Este 41 Este 0 -- -- 100
2020-11-05 20:00:00 6.5 20 Este 39 Este 0.2 -- -- 100
2020-11-05 19:00:00 6.7 20 Este 41 Este 0.6 -- -- 100
2020-11-05 18:00:00 6.4 18 Este 46 Sudeste 6.6 -- -- 100
2020-11-05 17:00:00 7 17 Sudeste 62 Nordeste 11 -- -- 100
2020-11-05 16:00:00 8.4 19 Este 60 Nordeste 1.2 -- -- 100
2020-11-05 15:00:00 8.3 22 Este 58 Este 2.2 -- -- 100
2020-11-05 14:00:00 7.9 21 Este 63 Este 5.8 -- -- 100
2020-11-05 13:00:00 7.8 23 Este 60 Este 4 -- -- 100
2020-11-05 12:00:00 7.6 26 Este 62 Este 6 -- -- 100
2020-11-05 11:00:00 7.5 33 Este 71 Nordeste 3.6 -- -- 100
2020-11-05 10:00:00 7.3 30 Este 79 Nordeste 2 -- -- 100
2020-11-05 09:00:00 7 30 Este 73 Nordeste 4 -- -- 100
2020-11-05 08:00:00 6.9 28 Este 75 Este 0.4 -- -- 100
2020-11-05 07:00:00 6.8 33 Este 80 Este 1 -- -- 100
2020-11-05 06:00:00 7 28 Este 72 Este 0.8 -- -- 100
2020-11-05 05:00:00 6.8 28 Este 69 Este 1 -- -- 100
2020-11-05 04:00:00 6.7 31 Este 68 Nordeste 3 -- -- 100
2020-11-05 03:00:00 6.7 25 Este 62 Este 2.8 -- -- 100
2020-11-05 02:00:00 6.3 20 Este 50 Este 0.6 -- -- 100
2020-11-05 01:00:00 6.4 19 Este 65 Nordeste 0 -- -- 100
2020-11-05 00:00:00 6.5 23 Este 51 Este 0.2 -- -- 100
2020-11-04 23:00:00 6.5 21 Este 53 Este 1 -- -- 100
2020-11-04 22:00:00 5.1 12 Este 32 Este 5.2 -- -- 100
2020-11-04 21:00:00 5.7 12 Este 52 Este 6.4 -- -- 100
2020-11-04 20:00:00 6.1 17 Este 37 Este 0.2 -- -- 100
2020-11-04 19:00:00 5.9 16 Este 40 Este 1.6 -- -- 100
2020-11-04 18:00:00 5.9 18 Este 40 Nordeste 0.6 -- -- 100
2020-11-04 17:00:00 5.3 11 Este 28 Este 1.8 -- -- 100
2020-11-04 16:00:00 5.7 13 Este 31 Este 0.8 -- -- 100
2020-11-04 15:00:00 5.4 13 Este 33 Este 1.4 -- -- 100
2020-11-04 14:00:00 5.7 14 Este 33 Este 1.6 -- -- 100
2020-11-04 13:00:00 6.2 12 Este 34 Este 1 -- -- 100
2020-11-04 12:00:00 5.9 10 Este 25 Este 0 -- -- 98
2020-11-04 11:00:00 7.2 11 Este 24 Este 0 -- -- 99
2020-11-04 10:00:00 5.6 12 Este 31 Este 0 -- -- 98
2020-11-04 09:00:00 6.5 9 Este 19 Este 0 -- -- 97
2020-11-04 08:00:00 6.4 6 Nordeste 18 Nordeste 0 -- -- 97
2020-11-04 07:00:00 6.5 8 Este 20 Este 0 -- -- 99
2020-11-04 06:00:00 6.7 7 Este 18 Este 0 -- -- 100
2020-11-04 05:00:00 6.9 3 Noroeste 6 Noroeste 0 -- -- 100
2020-11-04 04:00:00 6.9 0 Calma 8 Nordeste 0 -- -- 100
2020-11-04 03:00:00 7.5 4 Nordeste 16 Este 0 -- -- 100
2020-11-04 02:00:00 7.6 8 Nordeste 21 Este 0 -- -- 100
2020-11-04 01:00:00 7.8 10 Este 21 Nordeste 0 -- -- 100
2020-11-04 00:00:00 7.9 8 Este 28 Este 0 -- -- 100
2020-11-03 23:00:00 8.8 11 Este 30 Este 0 -- -- 100
2020-11-03 22:00:00 9.3 14 Este 30 Este 0 -- -- 99
2020-11-03 21:00:00 9.6 13 Este 26 Este 0 -- -- 96
2020-11-03 20:00:00 11 5 Este 18 Sudeste 0 -- -- 99
2020-11-03 19:00:00 10.7 4 Este 12 Este 0 -- -- 94
2020-11-03 18:00:00 11.7 2 Nordeste 10 Este 0 -- -- 89
2020-11-03 17:00:00 12.3 4 Este 11 Este 0 -- -- 88
2020-11-03 16:00:00 12.9 2 Este 9 Este 0 -- -- 90
2020-11-03 15:00:00 13.5 2 Este 10 Este 0 -- -- 84
2020-11-03 14:00:00 14.7 4 Este 11 Este 0 -- -- 78
2020-11-03 13:00:00 15.7 6 Este 23 Este 0 -- -- 73
2020-11-03 12:00:00 14.8 12 Este 24 Este 0 -- -- 75
2020-11-03 11:00:00 13.5 12 Este 24 Este 0 -- -- 79
2020-11-03 10:00:00 12.8 8 Este 16 Este 0 -- -- 76
2020-11-03 09:00:00 11.6 4 Este 13 Este 0 -- -- 83
2020-11-03 08:00:00 11.5 3 Este 8 Este 0 -- -- 84
2020-11-03 07:00:00 12.3 2 Sudeste 8 Sudeste 0 -- -- 81
2020-11-03 06:00:00 12 0 Calma 6 Norte 0 -- -- 82
2020-11-03 05:00:00 12.6 2 Noroeste 17 Norte 0 -- -- 81
2020-11-03 04:00:00 12.9 6 Norte 15 Norte 0 -- -- 78
2020-11-03 03:00:00 12.7 8 Norte 22 Norte 0 -- -- 80
2020-11-03 02:00:00 12.2 8 Norte 22 Norte 0 -- -- 84
2020-11-03 01:00:00 11.7 8 Noroeste 14 Noroeste 0 -- -- 86
2020-11-03 00:00:00 12 5 Norte 17 Oeste 0 -- -- 82
2020-11-02 23:00:00 12.3 8 Norte 19 Norte 0 -- -- 81
2020-11-02 22:00:00 12.2 10 Norte 19 Norte 0 -- -- 83
2020-11-02 21:00:00 12.7 6 Norte 18 Noroeste 0 -- -- 81
2020-11-02 20:00:00 12.6 9 Norte 19 Noroeste 0 -- -- 85
2020-11-02 19:00:00 12.6 9 Noroeste 17 Noroeste 0 -- -- 84
2020-11-02 18:00:00 13.5 2 Oeste 9 Oeste 0 -- -- 76
2020-11-02 17:00:00 14.2 4 Sudoeste 11 Sur 0 -- -- 70
2020-11-02 16:00:00 15.5 5 Sudoeste 10 Sudoeste 0 -- -- 68
2020-11-02 15:00:00 17.5 6 Sudoeste 13 Sudoeste 0 -- -- 58
2020-11-02 14:00:00 16.9 5 Sudoeste 11 Sudoeste 0 -- -- 55
2020-11-02 13:00:00 17.3 4 Sudoeste 12 Oeste 0 -- -- 58
2020-11-02 12:00:00 16.1 5 Oeste 9 Oeste 0 -- -- 66
2020-11-02 11:00:00 14.3 4 Sudoeste 7 Sudoeste 0 -- -- 70
2020-11-02 10:00:00 13.6 4 Oeste 8 Oeste 0 -- -- 74
2020-11-02 09:00:00 11.6 4 Oeste 6 Oeste 0 -- -- 79
2020-11-02 08:00:00 11.2 0 Calma 3 Sudoeste 0 -- -- 82
2020-11-02 07:00:00 11.6 2 Sur 3 Sur 0 -- -- 90
2020-11-02 06:00:00 11.6 2 Sur 3 Sur 0 -- -- 89
2020-11-02 05:00:00 11.4 2 Sur 6 Oeste 0 -- -- 85
2020-11-02 04:00:00 11.1 3 Sudoeste 5 Sudoeste 0 -- -- 75
2020-11-02 03:00:00 11.3 2 Sudoeste 4 Sudoeste 0 -- -- 73
2020-11-02 02:00:00 11.6 2 Sur 4 Sur 0 -- -- 71
2020-11-02 01:00:00 11.9 0 Calma 7 Sur 0 -- -- 70
2020-11-02 00:00:00 12 2 Sur 5 Oeste 0 -- -- 66
2020-11-01 23:00:00 11.8 0 Calma 4 Sudeste 0 -- -- 69
2020-11-01 22:00:00 12 0 Calma 3 Sur 0 -- -- 72
2020-11-01 21:00:00 12.3 0 Calma 3 Sudoeste 0 -- -- 74
2020-11-01 20:00:00 12.8 0 Calma 5 Oeste 0 -- -- 74
2020-11-01 19:00:00 13.7 0 Calma 3 Oeste 0 -- -- 78
2020-11-01 18:00:00 14.8 3 Noroeste 8 Oeste 0 -- -- 79
2020-11-01 17:00:00 16.3 4 Sudoeste 7 Sudoeste 0 -- -- 66
2020-11-01 16:00:00 17 4 Oeste 11 Sudoeste 0 -- -- 72
2020-11-01 15:00:00 18.3 4 Sudoeste 15 Sudoeste 0 -- -- 65
2020-11-01 14:00:00 18.9 6 Sudoeste 13 Sudoeste 0 -- -- 67
2020-11-01 13:00:00 18.1 4 Noroeste 8 Noroeste 0 -- -- 54
2020-11-01 12:00:00 16 2 Sudoeste 7 Sur 0 -- -- 56
2020-11-01 11:00:00 14.6 5 Sur 8 Sudoeste 0 -- -- 62
2020-11-01 10:00:00 11.1 0 Calma 4 Sur 0 -- -- 77
2020-11-01 09:00:00 10 0 Calma 7 Sur 0 -- -- 79
2020-11-01 08:00:00 8.9 3 Sur 8 Oeste 0 -- -- 73
2020-11-01 07:00:00 9.1 2 Sudoeste 8 Oeste 0 -- -- 69
2020-11-01 06:00:00 9.4 3 Oeste 5 Oeste 0 -- -- 83
2020-11-01 05:00:00 10.5 4 Oeste 10 Oeste 0 -- -- 82
2020-11-01 04:00:00 9.8 3 Sudoeste 5 Oeste 0 -- -- 82
2020-11-01 03:00:00 10.1 0 Calma 4 Sudoeste 0 -- -- 84
2020-11-01 02:00:00 10.2 2 Sudoeste 5 Sudoeste 0 -- -- 85
2020-11-01 01:00:00 10.2 0 Calma 3 Sudoeste 0 -- -- 76
2020-11-01 00:00:00 10.1 3 Noroeste 8 Oeste 0 -- -- 77
2020-10-31 23:00:00 10.4 6 Oeste 8 Oeste 0 -- -- 79
2020-10-31 22:00:00 10.5 3 Norte 6 Noroeste 0 -- -- 77
2020-10-31 21:00:00 10.9 0 Calma 4 Nordeste 0 -- -- 72
2020-10-31 20:00:00 11.3 2 Este 8 Oeste 0 -- -- 78
2020-10-31 19:00:00 13.1 5 Oeste 10 Oeste 0 -- -- 70
2020-10-31 18:00:00 15.3 5 Sudoeste 13 Sudoeste 0 -- -- 59
2020-10-31 17:00:00 17.8 6 Noroeste 10 Oeste 0 -- -- 63
2020-10-31 16:00:00 18.8 6 Oeste 12 Oeste 0 -- -- 47
2020-10-31 15:00:00 19.2 8 Oeste 14 Oeste 0 -- -- 55
2020-10-31 14:00:00 18.3 3 Sudeste 13 Sudoeste 0 -- -- 49
2020-10-31 13:00:00 18.7 5 Oeste 15 Sudoeste 0 -- -- 56
2020-10-31 12:00:00 17.8 4 Sudoeste 11 Sudoeste 0 -- -- 49
2020-10-31 11:00:00 15.7 4 Oeste 13 Este 0 -- -- 66
2020-10-31 10:00:00 13.2 3 Sudoeste 6 Sudoeste 0 -- -- 72
2020-10-31 09:00:00 10.5 0 Calma 2 Este 0 -- -- 85
2020-10-31 08:00:00 10.4 0 Calma 12 Nordeste 0 -- -- 80
2020-10-31 07:00:00 10 4 Este 11 Este 0 -- -- 81
2020-10-31 06:00:00 10 3 Este 9 Este 0 -- -- 80
2020-10-31 05:00:00 10.2 2 Este 12 Este 0 -- -- 77
2020-10-31 04:00:00 10 5 Este 11 Este 0 -- -- 81
2020-10-31 03:00:00 10.3 4 Este 13 Este 0 -- -- 76
2020-10-31 02:00:00 10.2 6 Este 14 Este 0 -- -- 78
2020-10-31 01:00:00 10.3 7 Este 17 Este 0 -- -- 81
2020-10-31 00:00:00 10.6 6 Este 13 Este 0 -- -- 76
2020-10-30 23:00:00 10 7 Este 13 Este 0 -- -- 78
2020-10-30 22:00:00 10.5 4 Este 7 Este 0 -- -- 73
2020-10-30 21:00:00 10.9 5 Este 9 Este 0 -- -- 71
2020-10-30 20:00:00 11.1 2 Este 4 Este 0 -- -- 68
2020-10-30 19:00:00 12.6 0 Calma 5 Oeste 0 -- -- 66
2020-10-30 18:00:00 15.5 3 Oeste 6 Sur 0 -- -- 59
2020-10-30 17:00:00 17.3 2 Sudoeste 10 Sur 0 -- -- 50
2020-10-30 16:00:00 18.1 2 Sur 9 Oeste 0 -- -- 52
2020-10-30 15:00:00 18.1 5 Sur 17 Sudoeste 0 -- -- 54
2020-10-30 14:00:00 18.1 4 Sur 13 Oeste 0 -- -- 54
2020-10-30 13:00:00 17.1 5 Sur 12 Sudeste 0 -- -- 57
2020-10-30 12:00:00 16.2 4 Este 15 Este 0 -- -- 65
2020-10-30 11:00:00 14.4 6 Este 15 Sudeste 0 -- -- 71
2020-10-30 10:00:00 12.8 5 Este 12 Este 0 -- -- 79
2020-10-30 09:00:00 9.9 5 Este 10 Nordeste 0 -- -- 90
2020-10-30 08:00:00 9 4 Este 10 Este 0 -- -- 90
2020-10-30 07:00:00 9.1 4 Este 7 Nordeste 0 -- -- 90
2020-10-30 06:00:00 9.3 2 Este 8 Nordeste 0 -- -- 89
2020-10-30 05:00:00 9.2 4 Este 9 Nordeste 0 -- -- 90
2020-10-30 04:00:00 9.4 3 Este 8 Este 0 -- -- 88
2020-10-30 03:00:00 9.4 2 Este 6 Sudeste 0 -- -- 90
2020-10-30 02:00:00 9.5 3 Sudeste 9 Sudeste 0 -- -- 90
2020-10-30 01:00:00 9.5 3 Sudeste 9 Este 0 -- -- 87
2020-10-30 00:00:00 9.3 4 Este 13 Nordeste 0 -- -- 89
2020-10-29 23:00:00 9.9 6 Este 17 Este 0 -- -- 90
2020-10-29 22:00:00 9.7 3 Este 9 Este 0 -- -- 91
2020-10-29 21:00:00 9.9 4 Este 13 Este 0 -- -- 92
2020-10-29 20:00:00 10.4 4 Este 14 Este 0 -- -- 91
2020-10-29 19:00:00 10.8 3 Este 9 Este 0 -- -- 88
2020-10-29 18:00:00 13.2 0 Calma 6 Sur 0 -- -- 82
2020-10-29 17:00:00 13.9 3 Nordeste 12 Norte 0 -- -- 80
2020-10-29 16:00:00 15.4 4 Oeste 13 Sudoeste 0 -- -- 76
2020-10-29 15:00:00 15 5 Sur 11 Sudoeste 0 -- -- 74
2020-10-29 14:00:00 13.3 4 Este 27 Este 0 -- -- 85
2020-10-29 13:00:00 11 10 Este 32 Nordeste 0 -- -- 96
2020-10-29 12:00:00 10 15 Este 37 Este 0 -- -- 96
2020-10-29 11:00:00 8.8 15 Este 34 Nordeste 0 -- -- 99
2020-10-29 10:00:00 7.8 14 Este 34 Este 0 -- -- 100
2020-10-29 09:00:00 7.1 14 Este 32 Este 0 -- -- 100
2020-10-29 08:00:00 7 8 Este 22 Este 0 -- -- 100
2020-10-29 07:00:00 6.6 3 Este 12 Sudeste 0 -- -- 100
2020-10-29 06:00:00 5.7 2 Sudeste 5 Este 0 -- -- 100
2020-10-29 05:00:00 5.4 2 Sudeste 5 Este 0 -- -- 100
2020-10-29 04:00:00 5.4 3 Sudeste 6 Sudeste 0 -- -- 100
2020-10-29 03:00:00 5.5 2 Sudeste 5 Sudeste 0 -- -- 100
2020-10-29 02:00:00 5.4 3 Sudeste 5 Sur 0 -- -- 100
2020-10-29 01:00:00 5.5 2 Sudeste 3 Sur 0.2 -- -- 100
2020-10-29 00:00:00 5.8 0 Calma 5 Este 0 -- -- 100
2020-10-28 23:00:00 6.2 4 Este 8 Este 0 -- -- 100
2020-10-28 22:00:00 5.9 0 Calma 4 Sudeste 0 -- -- 99
2020-10-28 21:00:00 6.8 2 Sudeste 6 Sudeste 0 -- -- 99
2020-10-28 20:00:00 7.6 0 Calma 12 Oeste 0 -- -- 95
2020-10-28 19:00:00 9.1 6 Oeste 16 Oeste 0 -- -- 98
2020-10-28 18:00:00 9.5 9 Oeste 21 Oeste 0 -- -- 99
2020-10-28 17:00:00 10.2 11 Oeste 20 Sudoeste 0 -- -- 100
2020-10-28 16:00:00 10.6 10 Oeste 23 Oeste 0 -- -- 100
2020-10-28 15:00:00 10.8 10 Oeste 24 Sudoeste 0 -- -- 100
2020-10-28 14:00:00 11 8 Oeste 20 Sudoeste 0 -- -- 100
2020-10-28 13:00:00 10.6 9 Oeste 18 Sudoeste 0.2 -- -- 100
2020-10-28 12:00:00 10.3 9 Sudoeste 21 Oeste 0.2 -- -- 100
2020-10-28 11:00:00 10 8 Sudoeste 18 Sudoeste 0 -- -- 100
2020-10-28 10:00:00 9.2 8 Sudoeste 19 Sudoeste 0.8 -- -- 100
2020-10-28 09:00:00 8.8 5 Sudoeste 14 Sudoeste 1 -- -- 100
2020-10-28 08:00:00 8.4 5 Sudoeste 18 Sudoeste 0 -- -- 100
2020-10-28 07:00:00 8.2 6 Sudoeste 15 Sudoeste 0 -- -- 100
2020-10-28 06:00:00 8.2 5 Sudoeste 12 Sudoeste 0 -- -- 100
2020-10-28 05:00:00 7.9 4 Sudoeste 12 Oeste 0 -- -- 100
2020-10-28 04:00:00 7.7 6 Sudoeste 12 Sudoeste 0 -- -- 100
2020-10-28 03:00:00 7.6 5 Sudoeste 11 Sur 0 -- -- 100
2020-10-28 02:00:00 7.2 0 Calma 9 Sudoeste 0.2 -- -- 100
2020-10-28 01:00:00 7.6 5 Oeste 20 Sudoeste 0 -- -- 100
2020-10-28 00:00:00 7.5 8 Sudoeste 19 Sudoeste 0 -- -- 100
2020-10-27 23:00:00 7.5 10 Oeste 22 Oeste 0 -- -- 100
2020-10-27 22:00:00 7.2 9 Oeste 21 Oeste 0 -- -- 100
2020-10-27 21:00:00 7.1 11 Oeste 22 Oeste 0.4 -- -- 100
2020-10-27 20:00:00 6.8 8 Oeste 17 Oeste 0.2 -- -- 100
2020-10-27 19:00:00 6.9 10 Oeste 21 Oeste 0.2 -- -- 98
2020-10-27 18:00:00 7.2 11 Sudoeste 27 Sudoeste 0 -- -- 96
2020-10-27 17:00:00 7.7 9 Sudoeste 20 Sudoeste 0 -- -- 91
2020-10-27 16:00:00 9.3 6 Oeste 14 Sudoeste 0 -- -- 83
2020-10-27 15:00:00 10.2 3 Sudoeste 17 Oeste 0 -- -- 79
2020-10-27 14:00:00 10 9 Oeste 16 Sudoeste 0 -- -- 78
2020-10-27 13:00:00 9.7 7 Sudoeste 17 Sudoeste 0 -- -- 78
2020-10-27 12:00:00 8.3 8 Sudoeste 18 Sur 0 -- -- 80
2020-10-27 11:00:00 8.1 9 Noroeste 26 Noroeste 0 -- -- 77
2020-10-27 10:00:00 6.7 10 Noroeste 22 Noroeste 0 -- -- 84
2020-10-27 09:00:00 4.4 5 Norte 23 Norte 0 -- -- 86
2020-10-27 08:00:00 3.7 8 Noroeste 27 Noroeste 0 -- -- 89
2020-10-27 07:00:00 3.4 18 Noroeste 29 Oeste 0 -- -- 88
2020-10-27 06:00:00 2.8 5 Oeste 18 Oeste 0 -- -- 88
2020-10-27 05:00:00 2.7 5 Oeste 14 Oeste 0 -- -- 91
2020-10-27 04:00:00 1.7 4 Oeste 9 Oeste 0 -- -- 96
2020-10-27 03:00:00 1.8 0 Calma 8 Noroeste 0 -- -- 93
2020-10-27 02:00:00 2.1 4 Noroeste 7 Oeste 0 -- -- 93
2020-10-27 01:00:00 2.5 4 Noroeste 13 Noroeste 0 -- -- 92
2020-10-27 00:00:00 3.3 5 Noroeste 15 Norte 0 -- -- 91
2020-10-26 23:00:00 3.6 6 Noroeste 19 Oeste 0 -- -- 88
2020-10-26 22:00:00 4 5 Noroeste 21 Noroeste 0 -- -- 86
2020-10-26 21:00:00 4.6 9 Noroeste 19 Noroeste 0 -- -- 83
2020-10-26 20:00:00 4.5 6 Noroeste 19 Noroeste 0 -- -- 84
2020-10-26 19:00:00 4.3 4 Noroeste 23 Noroeste 0 -- -- 83
2020-10-26 18:00:00 5.8 9 Noroeste 25 Noroeste 0 -- -- 77
2020-10-26 17:00:00 7.4 12 Noroeste 28 Oeste 0 -- -- 72
2020-10-26 16:00:00 7.1 14 Noroeste 39 Noroeste 0 -- -- 72
2020-10-26 15:00:00 7.2 18 Noroeste 37 Noroeste 0 -- -- 71
2020-10-26 14:00:00 7.8 18 Noroeste 40 Noroeste 0 -- -- 72
2020-10-26 13:00:00 7.4 19 Noroeste 45 Noroeste 0 -- -- 73
2020-10-26 12:00:00 6.5 25 Noroeste 44 Oeste 0 -- -- 77
2020-10-26 11:00:00 5.4 19 Noroeste 40 Noroeste 0 -- -- 82
2020-10-26 10:00:00 4.3 24 Noroeste 51 Noroeste 0 -- -- 78
2020-10-26 09:00:00 2.5 25 Noroeste 59 Noroeste 0 -- -- 89
2020-10-26 08:00:00 2.3 9 Noroeste 20 Noroeste 0 -- -- 96
2020-10-26 07:00:00 2.2 4 Norte 11 Este 0 -- -- 97
2020-10-26 06:00:00 2.6 2 Sudoeste 18 Sudoeste 0 -- -- 100
2020-10-26 05:00:00 2.7 7 Oeste 22 Oeste 0 -- -- 100
2020-10-26 04:00:00 2.9 10 Oeste 24 Oeste 0 -- -- 100
2020-10-26 03:00:00 3 6 Oeste 22 Sudoeste 0 -- -- 99
2020-10-26 02:00:00 3.2 12 Oeste 26 Oeste 0 -- -- 98
2020-10-26 01:00:00 3.2 7 Sudoeste 24 Oeste 0 -- -- 99
2020-10-26 00:00:00 3.7 10 Oeste 26 Oeste 0 -- -- 98